createdAt,value
2023-05-18T00:02:24.116Z,97531.55
2023-05-18T00:04:52.256Z,97532.20
2023-05-18T00:07:20.305Z,97529.73
2023-05-18T00:09:48.310Z,97527.39
2023-05-18T00:12:16.539Z,97525.10
2023-05-18T00:14:44.679Z,97524.60
2023-05-18T00:17:15.008Z,97523.59
2023-05-18T00:19:46.875Z,97522.79
2023-05-18T00:22:20.825Z,97523.71
2023-05-18T00:24:49.006Z,97521.00
2023-05-18T00:27:16.974Z,97517.77
2023-05-18T00:29:44.927Z,97519.66
2023-05-18T00:32:13.478Z,97520.20
2023-05-18T00:34:41.931Z,97527.70
2023-05-18T00:37:09.989Z,97526.02
2023-05-18T00:39:37.962Z,97524.99
2023-05-18T00:42:06.282Z,97521.50
2023-05-18T00:44:34.210Z,97524.88
2023-05-18T00:47:02.330Z,97521.23
2023-05-18T00:49:30.554Z,97520.59
2023-05-18T00:51:58.735Z,97518.34
2023-05-18T00:54:27.038Z,97519.94
2023-05-18T00:56:55.027Z,97515.85
2023-05-18T00:59:23.271Z,97516.16
2023-05-18T01:01:51.610Z,97517.58
2023-05-18T01:04:21.743Z,97516.05
2023-05-18T01:06:50.089Z,97516.66
2023-05-18T01:09:18.061Z,97514.52
2023-05-18T01:11:57.350Z,97514.61
2023-05-18T01:14:35.276Z,97509.77
2023-05-18T01:17:13.081Z,97508.07
2023-05-18T01:20:01.275Z,97502.80
2023-05-18T01:22:48.208Z,97504.61
2023-05-18T01:25:54.401Z,97500.85
2023-05-18T01:28:28.592Z,97499.98
2023-05-18T01:30:56.784Z,97496.46
2023-05-18T01:33:25.424Z,97491.73
2023-05-18T01:35:53.586Z,97488.63
2023-05-18T01:38:24.213Z,97487.62
2023-05-18T01:41:03.096Z,97490.96
2023-05-18T01:43:35.336Z,97492.15
2023-05-18T01:46:23.194Z,97492.73
2023-05-18T01:48:55.184Z,97495.36
2023-05-18T01:51:26.175Z,97495.41
2023-05-18T01:54:04.441Z,97492.77
2023-05-18T01:56:33.193Z,97491.73
2023-05-18T01:59:01.177Z,97492.15
2023-05-18T02:01:29.585Z,97489.21
2023-05-18T02:03:58.142Z,97489.23
2023-05-18T02:06:26.209Z,97485.80
2023-05-18T02:08:55.091Z,97483.98
2023-05-18T02:11:23.072Z,97478.52
2023-05-18T02:13:52.209Z,97475.11
2023-05-18T02:16:20.274Z,97473.16
2023-05-18T02:18:49.374Z,97472.21
2023-05-18T02:21:17.485Z,97474.80
2023-05-18T02:23:45.814Z,97473.60
2023-05-18T02:26:15.334Z,97473.77
2023-05-18T02:28:43.622Z,97473.61
2023-05-18T02:31:14.464Z,97475.86
2023-05-18T02:33:42.530Z,97476.40
2023-05-18T02:36:12.418Z,97476.67
2023-05-18T02:38:42.393Z,97484.65
2023-05-18T02:41:12.204Z,97487.84
2023-05-18T02:43:40.585Z,97487.36
2023-05-18T02:46:09.650Z,97496.73
2023-05-18T02:48:38.591Z,97496.89
2023-05-18T02:51:06.710Z,97496.86
2023-05-18T02:53:35.169Z,97495.14
2023-05-18T02:56:08.230Z,97501.77
2023-05-18T02:58:44.865Z,97504.96
2023-05-18T03:01:19.895Z,97510.65
2023-05-18T03:03:53.141Z,97512.05
2023-05-18T03:06:26.603Z,97509.84
2023-05-18T03:08:55.542Z,97511.95
2023-05-18T03:11:29.040Z,97514.30
2023-05-18T03:13:57.099Z,97515.63
2023-05-18T03:16:28.840Z,97514.11
2023-05-18T03:18:59.426Z,97516.15
2023-05-18T03:21:34.015Z,97518.73
2023-05-18T03:24:05.450Z,97522.20
2023-05-18T03:26:35.739Z,97523.14
2023-05-18T03:29:03.855Z,97525.48
2023-05-18T03:31:32.012Z,97527.00
2023-05-18T03:34:00.776Z,97529.00
2023-05-18T03:36:28.820Z,97534.17
2023-05-18T03:38:56.895Z,97538.96
2023-05-18T03:41:25.310Z,97538.86
2023-05-18T03:43:54.518Z,97539.34
2023-05-18T03:46:23.270Z,97545.27
2023-05-18T03:48:51.720Z,97548.55
2023-05-18T03:51:22.124Z,97551.22
2023-05-18T03:53:50.116Z,97554.39
2023-05-18T03:56:18.481Z,97556.01
2023-05-18T03:58:46.416Z,97559.52
2023-05-18T04:01:14.499Z,97564.16
2023-05-18T04:03:43.938Z,97566.55
2023-05-18T04:06:12.176Z,97569.98
2023-05-18T04:08:40.518Z,97574.48
2023-05-18T04:11:08.511Z,97581.23
2023-05-18T04:13:38.101Z,97583.17
2023-05-18T04:16:07.378Z,97586.17
2023-05-18T04:18:36.394Z,97589.14
2023-05-18T04:21:06.559Z,97591.98
2023-05-18T04:23:39.220Z,97594.58
2023-05-18T04:26:08.999Z,97596.36
2023-05-18T04:28:40.053Z,97599.89
2023-05-18T04:31:08.097Z,97599.17
2023-05-18T04:33:36.117Z,97600.94
2023-05-18T04:36:05.091Z,97605.81
2023-05-18T04:38:34.673Z,97609.49
2023-05-18T04:41:07.533Z,97614.65
2023-05-18T04:43:36.756Z,97618.39
2023-05-18T04:46:07.435Z,97620.52
2023-05-18T04:48:36.482Z,97619.38
2023-05-18T04:51:06.245Z,97624.79
2023-05-18T04:53:34.630Z,97624.60
2023-05-18T04:56:02.644Z,97629.52
2023-05-18T04:58:30.865Z,97634.29
2023-05-18T05:00:58.948Z,97636.20
2023-05-18T05:03:28.594Z,97642.73
2023-05-18T05:05:57.249Z,97645.77
2023-05-18T05:08:25.924Z,97650.39
2023-05-18T05:10:53.975Z,97657.85
2023-05-18T05:13:22.129Z,97653.04
2023-05-18T05:15:50.383Z,97649.88
2023-05-18T05:18:18.575Z,97647.07
2023-05-18T05:20:46.762Z,97648.53
2023-05-18T05:23:15.089Z,97650.65
2023-05-18T05:25:44.188Z,97651.80
2023-05-18T05:28:12.362Z,97650.80
2023-05-18T05:30:40.914Z,97648.59
2023-05-18T05:33:09.007Z,97646.69
2023-05-18T05:35:38.654Z,97644.65
2023-05-18T05:38:07.172Z,97647.35
2023-05-18T05:40:36.045Z,97651.02
2023-05-18T05:43:07.584Z,97651.52
2023-05-18T05:45:35.891Z,97652.26
2023-05-18T05:48:07.405Z,97653.68
2023-05-18T05:50:36.413Z,97656.84
2023-05-18T05:53:06.314Z,97654.50
2023-05-18T05:55:42.011Z,97652.06
2023-05-18T05:58:14.008Z,97654.73
2023-05-18T06:00:46.801Z,97657.04
2023-05-18T06:03:16.207Z,97660.08
2023-05-18T06:05:46.676Z,97660.27
2023-05-18T06:08:17.192Z,97666.51
2023-05-18T06:10:45.973Z,97672.13
2023-05-18T06:13:14.347Z,97669.44
2023-05-18T06:15:53.272Z,97668.23
2023-05-18T06:18:21.642Z,97669.73
2023-05-18T06:20:51.364Z,97666.17
2023-05-18T06:23:22.796Z,97674.25
2023-05-18T06:26:13.548Z,97676.70
2023-05-18T06:28:47.309Z,97681.08
2023-05-18T06:31:47.630Z,97683.50
2023-05-18T06:34:21.881Z,97687.89
2023-05-18T06:36:49.800Z,97687.32
2023-05-18T06:39:18.003Z,97690.98
2023-05-18T06:41:46.304Z,97691.02
2023-05-18T06:44:22.769Z,97685.88
2023-05-18T06:47:23.077Z,97696.70
2023-05-18T06:49:51.855Z,97691.34
2023-05-18T06:52:24.419Z,97693.30
2023-05-18T06:54:54.522Z,97694.86
2023-05-18T06:57:22.590Z,97698.64
2023-05-18T06:59:53.821Z,97700.02
2023-05-18T07:02:21.951Z,97703.98
2023-05-18T07:04:50.005Z,97710.05
2023-05-18T07:07:18.081Z,97720.05
2023-05-18T07:09:46.309Z,97717.27
2023-05-18T07:12:14.312Z,97726.86
2023-05-18T07:14:42.433Z,97726.47
2023-05-18T07:17:10.463Z,97728.84
2023-05-18T07:19:38.612Z,97726.91
2023-05-18T07:22:07.750Z,97731.35
2023-05-18T07:24:35.971Z,97733.39
2023-05-18T07:27:04.389Z,97738.25
2023-05-18T07:29:32.378Z,97736.40
2023-05-18T07:32:00.705Z,97734.39
2023-05-18T07:34:29.048Z,97736.79
2023-05-18T07:36:57.912Z,97735.10
2023-05-18T07:39:29.447Z,97731.42
2023-05-18T07:41:57.535Z,97732.65
2023-05-18T07:44:26.012Z,97737.14
2023-05-18T07:46:54.280Z,97741.58
2023-05-18T07:49:26.105Z,97741.40
2023-05-18T07:51:54.326Z,97736.05
2023-05-18T07:54:22.707Z,97738.10
2023-05-18T07:56:51.806Z,97742.21
2023-05-18T07:59:20.194Z,97750.60
2023-05-18T08:01:49.370Z,97757.35
2023-05-18T08:04:17.504Z,97751.70
2023-05-18T08:06:45.638Z,97757.79
2023-05-18T08:09:13.700Z,97761.70
2023-05-18T08:11:42.740Z,97764.14
2023-05-18T08:14:10.689Z,97770.84
2023-05-18T08:16:39.358Z,97767.05
2023-05-18T08:19:07.584Z,97782.52
2023-05-18T08:21:35.931Z,97778.30
2023-05-18T08:24:04.176Z,97779.98
2023-05-18T08:26:32.321Z,97788.50
2023-05-18T08:29:00.414Z,97784.48
2023-05-18T08:31:28.491Z,97790.74
2023-05-18T08:33:56.480Z,97788.88
2023-05-18T08:36:24.561Z,97785.58
2023-05-18T08:38:53.710Z,97797.45
2023-05-18T08:41:32.589Z,97785.73
2023-05-18T08:44:06.761Z,97791.23
2023-05-18T08:46:36.033Z,97785.49
2023-05-18T08:49:05.078Z,97795.55
2023-05-18T08:51:37.241Z,97789.73
2023-05-18T08:54:06.393Z,97783.77
2023-05-18T08:56:34.731Z,97785.02
2023-05-18T08:59:05.368Z,97783.73
2023-05-18T09:01:33.372Z,97784.54
2023-05-18T09:04:01.565Z,97791.03
2023-05-18T09:06:29.793Z,97795.79
2023-05-18T09:08:58.658Z,97795.48
2023-05-18T09:11:27.247Z,97795.24
2023-05-18T09:13:55.904Z,97798.69
2023-05-18T09:16:24.742Z,97792.98
2023-05-18T09:18:53.721Z,97786.63
2023-05-18T09:21:21.763Z,97787.64
2023-05-18T09:23:50.855Z,97783.14
2023-05-18T09:26:22.667Z,97785.04
2023-05-18T09:28:53.896Z,97784.70
2023-05-18T09:31:24.555Z,97784.65
2023-05-18T09:33:53.197Z,97782.51
2023-05-18T09:36:25.668Z,97784.68
2023-05-18T09:38:53.796Z,97784.25
2023-05-18T09:41:21.985Z,97782.13
2023-05-18T09:43:51.540Z,97783.79
2023-05-18T09:46:21.126Z,97783.05
2023-05-18T09:48:51.704Z,97783.13
2023-05-18T09:51:21.946Z,97781.88
2023-05-18T09:53:54.550Z,97783.69
2023-05-18T09:56:23.225Z,97783.36
2023-05-18T09:58:51.467Z,97786.08
2023-05-18T10:01:20.090Z,97785.23
2023-05-18T10:03:49.918Z,97777.66
2023-05-18T10:06:20.193Z,97777.62
2023-05-18T10:08:48.694Z,97779.23
2023-05-18T10:11:19.476Z,97778.35
2023-05-18T10:13:47.683Z,97775.66
2023-05-18T10:16:16.050Z,97774.38
2023-05-18T10:18:44.292Z,97774.91
2023-05-18T10:21:12.789Z,97775.19
2023-05-18T10:23:40.884Z,97774.14
2023-05-18T10:26:10.230Z,97774.70
2023-05-18T10:28:41.591Z,97772.19
2023-05-18T10:31:09.612Z,97767.16
2023-05-18T10:33:38.183Z,97769.59
2023-05-18T10:36:06.789Z,97766.41
2023-05-18T10:38:34.889Z,97763.22
2023-05-18T10:41:02.976Z,97758.79
2023-05-18T10:43:31.078Z,97754.61
2023-05-18T10:46:00.630Z,97755.84
2023-05-18T10:48:29.806Z,97757.31
2023-05-18T10:50:58.074Z,97757.70
2023-05-18T10:53:30.010Z,97757.80
2023-05-18T10:55:58.081Z,97755.19
2023-05-18T10:58:27.619Z,97751.48
2023-05-18T11:00:58.181Z,97748.34
2023-05-18T11:03:27.205Z,97744.52
2023-05-18T11:06:10.348Z,97745.61
2023-05-18T11:08:47.924Z,97747.19
2023-05-18T11:11:18.640Z,97748.95
2023-05-18T11:13:50.739Z,97746.77
2023-05-18T11:16:19.558Z,97746.94
2023-05-18T11:18:49.833Z,97745.03
2023-05-18T11:21:19.663Z,97746.80
2023-05-18T11:24:13.627Z,97747.16
2023-05-18T11:26:42.477Z,97752.29
2023-05-18T11:29:38.328Z,97753.75
2023-05-18T11:32:29.385Z,97751.55
2023-05-18T11:34:59.175Z,97754.05
2023-05-18T11:37:39.236Z,97755.73
2023-05-18T11:40:14.260Z,97755.13
2023-05-18T11:42:42.544Z,97755.56
2023-05-18T11:45:11.782Z,97757.15
2023-05-18T11:47:43.078Z,97758.69
2023-05-18T11:50:14.898Z,97755.52
2023-05-18T11:52:49.619Z,97746.45
2023-05-18T11:55:19.495Z,97752.05
2023-05-18T11:57:50.027Z,97753.02
2023-05-18T12:00:18.588Z,97752.48
2023-05-18T12:02:47.684Z,97754.64
2023-05-18T12:05:16.274Z,97754.27
2023-05-18T12:07:45.169Z,97754.10
2023-05-18T12:10:17.374Z,97754.05
2023-05-18T12:12:48.123Z,97753.68
2023-05-18T12:15:17.439Z,97749.55
2023-05-18T12:17:47.561Z,97751.49
2023-05-18T12:20:16.812Z,97749.13
2023-05-18T12:22:46.359Z,97749.13
2023-05-18T12:25:14.375Z,97748.29
2023-05-18T12:27:43.985Z,97744.69
2023-05-18T12:30:13.869Z,97748.36
2023-05-18T12:32:46.548Z,97744.68
2023-05-18T12:35:14.702Z,97746.70
2023-05-18T12:37:45.071Z,97741.89
2023-05-18T12:40:14.396Z,97741.59
2023-05-18T12:43:03.311Z,97744.39
2023-05-18T12:45:32.681Z,97747.98
2023-05-18T12:48:07.696Z,97747.77
2023-05-18T12:50:37.210Z,97747.44
2023-05-18T12:53:05.787Z,97741.70
2023-05-18T12:55:34.841Z,97740.46
2023-05-18T12:58:07.394Z,97740.20
2023-05-18T13:00:36.777Z,97740.15
2023-05-18T13:03:15.362Z,97739.66
2023-05-18T13:05:45.739Z,97736.67
2023-05-18T13:08:22.331Z,97733.13
2023-05-18T13:11:01.266Z,97732.96
2023-05-18T13:13:33.955Z,97730.12
2023-05-18T13:16:02.240Z,97726.57
2023-05-18T13:18:30.615Z,97728.87
2023-05-18T13:20:58.802Z,97726.15
2023-05-18T13:23:27.908Z,97725.45
2023-05-18T13:25:58.690Z,97727.97
2023-05-18T13:28:27.669Z,97724.95
2023-05-18T13:30:55.864Z,97731.67
2023-05-18T13:33:24.241Z,97731.36
2023-05-18T13:35:52.429Z,97732.86
2023-05-18T13:38:20.409Z,97726.73
2023-05-18T13:40:48.637Z,97727.23
2023-05-18T13:43:16.656Z,97725.85
2023-05-18T13:45:44.777Z,97724.91
2023-05-18T13:48:14.482Z,97726.44
2023-05-18T13:50:42.873Z,97722.68
2023-05-18T13:53:11.232Z,97729.30
2023-05-18T13:55:39.488Z,97728.92
2023-05-18T13:58:08.185Z,97730.32
2023-05-18T14:00:36.953Z,97729.11
2023-05-18T14:03:05.092Z,97728.16
2023-05-18T14:05:33.050Z,97731.70
2023-05-18T14:08:01.674Z,97729.71
2023-05-18T14:10:30.215Z,97732.58
2023-05-18T14:12:58.354Z,97735.59
2023-05-18T14:15:26.880Z,97736.29
2023-05-18T14:17:55.015Z,97734.84
2023-05-18T14:20:23.154Z,97731.08
2023-05-18T14:22:51.245Z,97727.69
2023-05-18T14:25:20.100Z,97728.48
2023-05-18T14:27:48.060Z,97730.27
2023-05-18T14:30:16.366Z,97726.24
2023-05-18T14:32:44.471Z,97727.70
2023-05-18T14:35:12.585Z,97728.86
2023-05-18T14:37:40.890Z,97727.66
2023-05-18T14:40:10.889Z,97727.55
2023-05-18T14:42:39.322Z,97727.85
2023-05-18T14:45:08.012Z,97728.23
2023-05-18T14:47:36.064Z,97722.63
2023-05-18T14:50:04.239Z,97722.96
2023-05-18T14:52:32.392Z,97725.52
2023-05-18T14:55:00.686Z,97726.11
2023-05-18T14:57:29.150Z,97721.60
2023-05-18T14:59:58.312Z,97720.09
2023-05-18T15:02:26.392Z,97715.20
2023-05-18T15:04:54.453Z,97715.84
2023-05-18T15:07:22.493Z,97714.43
2023-05-18T15:09:50.643Z,97717.80
2023-05-18T15:12:19.847Z,97718.81
2023-05-18T15:14:47.833Z,97719.92
2023-05-18T15:17:17.934Z,97721.66
2023-05-18T15:19:47.061Z,97722.63
2023-05-18T15:22:15.690Z,97720.16
2023-05-18T15:24:43.965Z,97722.30
2023-05-18T15:27:12.171Z,97720.81
2023-05-18T15:29:40.300Z,97724.15
2023-05-18T15:32:08.702Z,97725.98
2023-05-18T15:34:37.089Z,97723.40
2023-05-18T15:37:05.061Z,97722.05
2023-05-18T15:39:33.160Z,97724.48
2023-05-18T15:42:01.311Z,97723.94
2023-05-18T15:44:29.889Z,97724.64
2023-05-18T15:46:57.907Z,97719.85
2023-05-18T15:49:26.255Z,97720.06
2023-05-18T15:51:54.292Z,97716.30
2023-05-18T15:54:22.327Z,97717.13
2023-05-18T15:56:50.591Z,97716.09
2023-05-18T15:59:18.609Z,97722.54
2023-05-18T16:01:46.823Z,97722.12
2023-05-18T16:04:15.002Z,97721.15
2023-05-18T16:06:43.091Z,97722.33
2023-05-18T16:09:11.262Z,97728.80
2023-05-18T16:11:39.311Z,97729.17
2023-05-18T16:14:07.434Z,97731.83
2023-05-18T16:16:35.661Z,97733.35
2023-05-18T16:19:05.550Z,97734.13
2023-05-18T16:21:33.709Z,97737.48
2023-05-18T16:24:02.854Z,97741.09
2023-05-18T16:26:32.408Z,97742.91
2023-05-18T16:29:00.562Z,97742.27
2023-05-18T16:31:28.650Z,97738.65
2023-05-18T16:33:57.063Z,97742.23
2023-05-18T16:36:26.192Z,97743.86
2023-05-18T16:38:54.895Z,97743.64
2023-05-18T16:41:22.958Z,97744.22
2023-05-18T16:43:50.971Z,97747.06
2023-05-18T16:46:20.155Z,97751.11
2023-05-18T16:48:48.196Z,97750.42
2023-05-18T16:51:16.452Z,97751.84
2023-05-18T16:53:44.610Z,97753.73
2023-05-18T16:56:12.665Z,97753.47
2023-05-18T16:58:41.004Z,97754.34
2023-05-18T17:01:19.248Z,97755.14
2023-05-18T17:03:54.519Z,97755.88
2023-05-18T17:06:22.680Z,97755.02
2023-05-18T17:08:57.657Z,97755.28
2023-05-18T17:11:27.059Z,97765.08
2023-05-18T17:13:55.328Z,97763.02
2023-05-18T17:16:23.649Z,97765.71
2023-05-18T17:18:53.521Z,97763.17
2023-05-18T17:21:21.612Z,97764.75
2023-05-18T17:23:49.645Z,97765.83
2023-05-18T17:26:17.654Z,97766.10
2023-05-18T17:28:46.056Z,97768.08
2023-05-18T17:31:15.112Z,97770.94
2023-05-18T17:33:47.369Z,97772.02
2023-05-18T17:36:18.962Z,97770.61
2023-05-18T17:38:47.474Z,97774.04
2023-05-18T17:41:15.843Z,97775.58
2023-05-18T17:43:43.901Z,97771.48
2023-05-18T17:46:11.900Z,97776.86
2023-05-18T17:48:40.126Z,97777.98
2023-05-18T17:51:08.105Z,97779.02
2023-05-18T17:53:41.984Z,97780.56
2023-05-18T17:56:10.943Z,97783.34
2023-05-18T17:58:39.749Z,97783.84
2023-05-18T18:01:09.202Z,97786.80
2023-05-18T18:03:37.702Z,97795.92
2023-05-18T18:06:06.754Z,97797.68
2023-05-18T18:08:34.903Z,97801.89
2023-05-18T18:11:03.258Z,97798.61
2023-05-18T18:13:31.310Z,97802.06
2023-05-18T18:15:59.282Z,97807.37
2023-05-18T18:18:27.875Z,97811.36
2023-05-18T18:20:55.891Z,97821.09
2023-05-18T18:23:23.941Z,97826.31
2023-05-18T18:25:52.027Z,97825.18
2023-05-18T18:28:20.648Z,97824.86
2023-05-18T18:30:49.156Z,97828.30
2023-05-18T18:33:17.270Z,97825.12
2023-05-18T18:35:45.554Z,97828.62
2023-05-18T18:38:13.512Z,97831.09
2023-05-18T18:40:41.529Z,97827.12
2023-05-18T18:43:09.574Z,97828.03
2023-05-18T18:45:37.588Z,97832.45
2023-05-18T18:48:06.672Z,97833.19
2023-05-18T18:50:34.798Z,97834.75
2023-05-18T18:53:02.872Z,97836.27
2023-05-18T18:55:31.330Z,97836.02
2023-05-18T18:58:01.395Z,97839.09
2023-05-18T19:00:29.538Z,97840.98
2023-05-18T19:02:57.599Z,97841.31
2023-05-18T19:05:25.965Z,97846.31
2023-05-18T19:07:55.885Z,97846.36
2023-05-18T19:10:23.964Z,97848.79
2023-05-18T19:12:51.944Z,97846.48
2023-05-18T19:15:21.462Z,97845.73
2023-05-18T19:17:53.565Z,97844.65
2023-05-18T19:20:21.783Z,97848.51
2023-05-18T19:22:49.921Z,97852.90
2023-05-18T19:25:17.989Z,97855.42
2023-05-18T19:27:46.052Z,97858.58
2023-05-18T19:30:16.687Z,97856.48
2023-05-18T19:32:44.724Z,97856.08
2023-05-18T19:35:12.975Z,97853.34
2023-05-18T19:37:41.001Z,97857.25
2023-05-18T19:40:09.352Z,97857.46
2023-05-18T19:42:37.497Z,97862.42
2023-05-18T19:45:06.025Z,97864.05
2023-05-18T19:47:34.255Z,97863.60
2023-05-18T19:50:02.825Z,97864.61
2023-05-18T19:52:31.819Z,97865.12
2023-05-18T19:55:00.325Z,97864.80
2023-05-18T19:57:28.804Z,97864.66
2023-05-18T19:59:58.045Z,97865.40
2023-05-18T20:02:26.193Z,97869.63
2023-05-18T20:04:54.575Z,97869.34
2023-05-18T20:07:22.727Z,97866.17
2023-05-18T20:09:53.225Z,97871.52
2023-05-18T20:12:21.253Z,97879.41
2023-05-18T20:14:49.327Z,97884.95
2023-05-18T20:17:17.920Z,97891.80
2023-05-18T20:19:50.574Z,97891.11
2023-05-18T20:22:19.120Z,97895.29
2023-05-18T20:24:47.041Z,97891.14
2023-05-18T20:27:15.416Z,97891.26
2023-05-18T20:29:43.707Z,97897.53
2023-05-18T20:32:11.778Z,97904.81
2023-05-18T20:34:41.481Z,97916.58
2023-05-18T20:37:11.060Z,97914.91
2023-05-18T20:39:40.624Z,97908.28
2023-05-18T20:42:12.642Z,97901.92
2023-05-18T20:44:42.686Z,97904.38
2023-05-18T20:47:11.363Z,97911.56
2023-05-18T20:49:39.544Z,97921.27
2023-05-18T20:52:07.562Z,97932.51
2023-05-18T20:54:35.633Z,97937.44
2023-05-18T20:57:04.009Z,97932.65
2023-05-18T20:59:31.978Z,97926.30
2023-05-18T21:02:00.045Z,97919.69
2023-05-18T21:04:28.306Z,97915.29
2023-05-18T21:06:56.350Z,97913.31
2023-05-18T21:09:24.424Z,97915.63
2023-05-18T21:11:52.763Z,97908.96
2023-05-18T21:14:20.984Z,97905.10
2023-05-18T21:16:49.065Z,97905.16
2023-05-18T21:19:17.419Z,97901.74
2023-05-18T21:21:45.478Z,97899.70
2023-05-18T21:24:13.659Z,97896.20
2023-05-18T21:26:42.067Z,97900.08
2023-05-18T21:29:10.141Z,97900.99
2023-05-18T21:31:38.194Z,97898.20
2023-05-18T21:34:06.736Z,97899.09
2023-05-18T21:36:35.076Z,97898.49
2023-05-18T21:39:04.375Z,97900.98
2023-05-18T21:41:33.559Z,97902.42
2023-05-18T21:44:01.608Z,97910.26
2023-05-18T21:46:30.128Z,97914.77
2023-05-18T21:48:58.513Z,97911.75
2023-05-18T21:51:26.785Z,97908.77
2023-05-18T21:53:54.778Z,97906.80
2023-05-18T21:56:23.409Z,97909.46
2023-05-18T21:58:51.637Z,97906.02
2023-05-18T22:01:21.649Z,97905.70
2023-05-18T22:03:52.530Z,97905.49
2023-05-18T22:06:20.656Z,97900.92
2023-05-18T22:08:48.822Z,97907.52
2023-05-18T22:11:16.919Z,97924.21
2023-05-18T22:13:44.958Z,97920.46
2023-05-18T22:16:12.919Z,97902.00
2023-05-18T22:18:41.037Z,97901.50
2023-05-18T22:21:09.055Z,97904.11
2023-05-18T22:23:38.857Z,97901.98
2023-05-18T22:26:07.203Z,97905.77
2023-05-18T22:28:35.251Z,97911.98
2023-05-18T22:31:03.622Z,97909.93
2023-05-18T22:33:31.670Z,97919.27
2023-05-18T22:35:59.699Z,97922.83
2023-05-18T22:38:27.837Z,97928.92
2023-05-18T22:40:56.125Z,97933.47
2023-05-18T22:43:24.376Z,97932.64
2023-05-18T22:45:52.630Z,97937.05
2023-05-18T22:48:20.765Z,97941.17
2023-05-18T22:50:48.823Z,97948.23
2023-05-18T22:53:16.811Z,97947.05
2023-05-18T22:55:44.701Z,97951.80
2023-05-18T22:58:12.690Z,97942.92
2023-05-18T23:00:41.100Z,97933.17
2023-05-18T23:03:09.111Z,97927.20
2023-05-18T23:05:41.339Z,97919.48
2023-05-18T23:08:10.469Z,97922.81
2023-05-18T23:10:38.595Z,97922.41
2023-05-18T23:13:06.525Z,97921.27
2023-05-18T23:15:34.574Z,97932.34
2023-05-18T23:18:02.741Z,97933.63
2023-05-18T23:20:34.708Z,97939.58
2023-05-18T23:23:02.908Z,97935.37
2023-05-18T23:25:30.904Z,97936.75
2023-05-18T23:27:58.986Z,97936.00
2023-05-18T23:30:27.139Z,97936.80
2023-05-18T23:32:56.716Z,97938.77
2023-05-18T23:35:25.292Z,97926.64
2023-05-18T23:37:54.809Z,97920.36
2023-05-18T23:40:22.906Z,97919.61
2023-05-18T23:42:51.478Z,97913.27
2023-05-18T23:45:19.836Z,97915.87
2023-05-18T23:47:48.379Z,97920.30
2023-05-18T23:50:17.161Z,97918.48
2023-05-18T23:52:45.117Z,97915.39
2023-05-18T23:55:13.419Z,97916.48
2023-05-18T23:57:41.690Z,97914.98
